createdAt,value
2019-02-10T00:00:40.650Z,5.00
2019-02-10T00:03:12.168Z,5.00
2019-02-10T00:05:42.675Z,4.90
2019-02-10T00:08:13.027Z,4.90
2019-02-10T00:10:43.357Z,4.80
2019-02-10T00:13:42.115Z,4.80
2019-02-10T00:16:15.123Z,4.80
2019-02-10T00:18:46.087Z,4.70
2019-02-10T00:21:16.885Z,4.70
2019-02-10T00:23:47.417Z,4.70
2019-02-10T00:26:17.837Z,4.70
2019-02-10T00:28:48.325Z,4.50
2019-02-10T00:31:18.676Z,4.50
2019-02-10T00:33:50.129Z,4.60
2019-02-10T00:36:20.493Z,4.70
2019-02-10T00:41:20.900Z,4.50
2019-02-10T00:43:51.315Z,4.50
2019-02-10T00:46:21.948Z,4.40
2019-02-10T00:48:52.296Z,4.30
2019-02-10T00:51:22.700Z,4.20
2019-02-10T00:53:53.391Z,4.20
2019-02-10T00:58:56.943Z,4.10
2019-02-10T01:01:44.660Z,3.80
2019-02-10T01:04:15.059Z,3.90
2019-02-10T01:06:54.043Z,3.80
2019-02-10T01:09:26.424Z,3.70
2019-02-10T01:11:56.826Z,3.70
2019-02-10T01:16:59.051Z,3.50
2019-02-10T01:19:34.684Z,3.50
2019-02-10T01:22:05.792Z,3.40
2019-02-10T01:24:36.877Z,3.30
2019-02-10T01:27:07.304Z,3.30
2019-02-10T01:29:37.978Z,3.30
2019-02-10T01:32:10.189Z,3.40
2019-02-10T01:34:40.568Z,3.60
2019-02-10T01:37:11.048Z,3.60
2019-02-10T01:39:41.405Z,3.50
2019-02-10T01:42:12.079Z,3.40
2019-02-10T01:44:42.423Z,3.30
2019-02-10T01:47:13.868Z,3.20
2019-02-10T01:49:44.220Z,3.10
2019-02-10T01:52:14.565Z,3.10
2019-02-10T01:54:46.432Z,3.00
2019-02-10T01:57:16.789Z,3.10
2019-02-10T01:59:47.218Z,3.10
2019-02-10T02:02:18.032Z,3.10
2019-02-10T02:04:48.484Z,3.10
2019-02-10T02:07:22.809Z,3.10
2019-02-10T02:09:53.299Z,3.10
2019-02-10T02:12:23.724Z,3.10
2019-02-10T02:14:54.132Z,3.00
2019-02-10T02:17:25.641Z,2.90
2019-02-10T02:19:56.008Z,2.80
2019-02-10T02:24:57.216Z,2.70
2019-02-10T02:27:27.616Z,2.60
2019-02-10T02:29:58.090Z,2.50
2019-02-10T02:32:30.641Z,2.40
2019-02-10T02:35:01.373Z,2.40
2019-02-10T02:37:31.822Z,2.30
2019-02-10T02:42:31.988Z,2.10
2019-02-10T02:47:33.778Z,2.10
2019-02-10T02:50:04.374Z,2.10
2019-02-10T02:52:35.214Z,2.20
2019-02-10T02:55:06.124Z,2.20
2019-02-10T02:57:36.949Z,2.00
2019-02-10T03:02:37.306Z,1.90
2019-02-10T03:05:08.884Z,1.90
2019-02-10T03:07:39.335Z,1.90
2019-02-10T03:10:09.953Z,1.90
2019-02-10T03:12:40.384Z,1.90
2019-02-10T03:15:11.821Z,1.80
2019-02-10T03:17:42.253Z,1.90
2019-02-10T03:20:14.083Z,1.90
2019-02-10T03:22:44.550Z,1.90
2019-02-10T03:25:14.973Z,2.00
2019-02-10T03:27:45.472Z,1.90
2019-02-10T03:30:20.159Z,2.00
2019-02-10T03:32:50.650Z,2.00
2019-02-10T03:35:21.104Z,2.10
2019-02-10T03:37:51.556Z,2.00
2019-02-10T03:40:21.998Z,2.00
2019-02-10T03:45:22.014Z,2.00
2019-02-10T03:47:52.448Z,1.90
2019-02-10T03:50:22.851Z,1.80
2019-02-10T03:52:53.195Z,1.80
2019-02-10T03:55:23.701Z,1.70
2019-02-10T03:57:55.643Z,1.60
2019-02-10T04:02:57.729Z,1.50
2019-02-10T04:05:30.110Z,1.70
2019-02-10T04:08:01.564Z,1.70
2019-02-10T04:10:33.083Z,1.70
2019-02-10T04:13:03.455Z,1.60
2019-02-10T04:15:33.830Z,1.60
2019-02-10T04:20:33.861Z,1.70
2019-02-10T04:25:33.832Z,1.60
2019-02-10T04:28:04.231Z,1.60
2019-02-10T04:30:34.592Z,1.60
2019-02-10T04:35:36.404Z,1.70
2019-02-10T04:38:07.374Z,1.70
2019-02-10T04:40:37.771Z,1.80
2019-02-10T04:43:08.450Z,1.70
2019-02-10T04:45:38.856Z,1.70
2019-02-10T04:48:09.199Z,1.70
2019-02-10T04:53:09.202Z,1.50
2019-02-10T04:55:39.540Z,1.50
2019-02-10T04:58:09.899Z,1.50
2019-02-10T05:00:40.227Z,1.40
2019-02-10T05:03:10.976Z,1.40
2019-02-10T05:05:41.326Z,1.40
2019-02-10T05:08:11.768Z,1.40
2019-02-10T05:10:42.108Z,1.40
2019-02-10T05:13:12.494Z,1.50
2019-02-10T05:15:42.843Z,1.30
2019-02-10T05:18:13.219Z,1.60
2019-02-10T05:20:43.837Z,1.60
2019-02-10T05:23:14.247Z,1.60
2019-02-10T05:25:44.588Z,1.60
2019-02-10T05:28:18.536Z,1.70
2019-02-10T05:30:49.011Z,1.80
2019-02-10T05:33:19.753Z,1.80
2019-02-10T05:35:50.100Z,1.80
2019-02-10T05:38:20.913Z,1.70
2019-02-10T05:43:21.328Z,1.70
2019-02-10T05:45:53.164Z,1.80
2019-02-10T05:48:24.920Z,1.70
2019-02-10T05:50:56.174Z,1.70
2019-02-10T05:53:26.634Z,1.60
2019-02-10T05:55:57.061Z,1.60
2019-02-10T06:01:33.998Z,1.70
2019-02-10T06:04:04.364Z,1.70
2019-02-10T06:06:35.649Z,1.70
2019-02-10T06:09:06.584Z,1.70
2019-02-10T06:11:37.321Z,1.70
2019-02-10T06:14:07.713Z,1.70
2019-02-10T06:16:38.147Z,1.80
2019-02-10T06:19:08.604Z,1.80
2019-02-10T06:21:39.038Z,1.90
2019-02-10T06:24:10.022Z,1.90
2019-02-10T06:26:40.448Z,2.00
2019-02-10T06:29:10.844Z,2.10
2019-02-10T06:31:41.212Z,2.10
2019-02-10T06:34:11.604Z,2.40
2019-02-10T06:36:42.032Z,2.70
2019-02-10T06:39:12.381Z,2.80
2019-02-10T06:41:43.103Z,3.20
2019-02-10T06:44:13.457Z,3.30
2019-02-10T06:46:43.837Z,3.50
2019-02-10T06:49:14.624Z,3.60
2019-02-10T06:51:45.012Z,4.00
2019-02-10T06:54:15.368Z,4.40
2019-02-10T06:56:45.728Z,4.70
2019-02-10T06:59:29.199Z,4.90
2019-02-10T07:02:05.011Z,5.00
2019-02-10T07:04:35.436Z,5.50
2019-02-10T07:07:05.904Z,5.60
2019-02-10T07:09:36.282Z,6.10
2019-02-10T07:12:42.476Z,6.30
2019-02-10T07:15:49.545Z,6.70
2019-02-10T07:18:55.576Z,7.00
2019-02-10T07:21:28.833Z,7.30
2019-02-10T07:24:48.586Z,7.50
2019-02-10T07:27:25.250Z,7.70
2019-02-10T07:30:35.583Z,7.80
2019-02-10T07:33:32.824Z,7.80
2019-02-10T07:36:56.492Z,7.80
2019-02-10T07:39:49.664Z,7.70
2019-02-10T07:42:51.096Z,8.10
2019-02-10T07:45:50.504Z,9.00
2019-02-10T07:48:45.743Z,8.90
2019-02-10T07:51:36.610Z,9.10
2019-02-10T07:54:18.148Z,9.10
2019-02-10T07:57:41.907Z,9.20
2019-02-10T08:00:50.642Z,9.90
2019-02-10T08:03:56.403Z,10.30
2019-02-10T08:06:39.914Z,10.60
2019-02-10T08:09:36.568Z,10.70
2019-02-10T08:12:27.578Z,10.70
2019-02-10T08:15:27.224Z,10.70
2019-02-10T08:18:54.315Z,11.30
2019-02-10T08:21:50.759Z,11.50
2019-02-10T08:25:04.868Z,12.40
2019-02-10T08:28:11.123Z,11.50
2019-02-10T08:31:07.439Z,10.70
2019-02-10T08:34:08.772Z,10.00
2019-02-10T08:37:27.385Z,9.20
2019-02-10T08:40:26.158Z,9.40
2019-02-10T08:43:40.453Z,9.10
2019-02-10T08:46:46.256Z,9.10
2019-02-10T08:50:12.629Z,9.10
2019-02-10T08:52:51.861Z,8.60
2019-02-10T08:55:19.916Z,8.60
2019-02-10T08:57:52.470Z,8.20
2019-02-10T09:00:24.204Z,8.10
2019-02-10T09:02:58.410Z,7.80
2019-02-10T09:05:30.398Z,7.50
2019-02-10T09:08:01.509Z,7.40
2019-02-10T09:10:31.956Z,7.00
2019-02-10T09:13:16.996Z,6.90
2019-02-10T09:16:07.783Z,6.80
2019-02-10T09:19:03.502Z,6.80
2019-02-10T09:21:54.657Z,6.70
2019-02-10T09:27:53.406Z,6.70
2019-02-10T09:33:38.604Z,6.90
2019-02-10T09:36:11.397Z,7.10
2019-02-10T09:39:10.808Z,7.70
2019-02-10T09:44:39.829Z,8.50
2019-02-10T09:47:13.074Z,8.80
2019-02-10T09:49:44.827Z,10.70
2019-02-10T09:52:15.653Z,9.70
2019-02-10T09:54:46.077Z,9.40
2019-02-10T09:57:31.070Z,9.30
2019-02-10T10:00:01.557Z,9.10
2019-02-10T10:02:32.368Z,9.30
2019-02-10T10:05:03.107Z,10.10
2019-02-10T10:07:34.747Z,10.20
2019-02-10T10:10:05.647Z,10.30
2019-02-10T10:12:36.449Z,9.90
2019-02-10T10:15:08.471Z,9.90
2019-02-10T10:17:38.887Z,10.10
2019-02-10T10:20:11.594Z,10.30
2019-02-10T10:22:43.016Z,10.90
2019-02-10T10:25:13.395Z,11.20
2019-02-10T10:27:44.160Z,11.00
2019-02-10T10:30:16.449Z,10.90
2019-02-10T10:32:48.513Z,10.70
2019-02-10T10:35:19.121Z,12.40
2019-02-10T10:37:49.711Z,11.00
2019-02-10T10:40:21.317Z,11.40
2019-02-10T10:42:51.756Z,11.50
2019-02-10T10:45:22.123Z,11.50
2019-02-10T10:47:52.572Z,11.90
2019-02-10T10:50:23.096Z,12.40
2019-02-10T10:52:53.969Z,12.30
2019-02-10T10:55:24.440Z,11.80
2019-02-10T10:57:55.996Z,11.90
2019-02-10T11:00:26.456Z,11.00
2019-02-10T11:02:58.941Z,10.30
2019-02-10T11:05:30.901Z,10.10
2019-02-10T11:08:01.442Z,9.50
2019-02-10T11:10:31.977Z,9.60
2019-02-10T11:13:08.948Z,9.30
2019-02-10T11:15:36.655Z,9.20
2019-02-10T11:23:00.759Z,9.00
2019-02-10T11:24:42.689Z,8.90
2019-02-10T11:35:20.228Z,9.30
2019-02-10T11:38:08.144Z,9.60
2019-02-10T11:40:38.607Z,10.00
2019-02-10T11:43:09.083Z,10.40
2019-02-10T11:45:39.460Z,10.70
2019-02-10T11:48:09.855Z,12.30
2019-02-10T11:50:40.212Z,13.70
2019-02-10T11:53:11.070Z,14.50
2019-02-10T11:55:41.503Z,14.00
2019-02-10T11:58:11.883Z,13.00
2019-02-10T12:00:42.299Z,12.60
2019-02-10T12:03:12.683Z,11.20
2019-02-10T12:05:43.131Z,11.10
2019-02-10T12:08:13.527Z,11.10
2019-02-10T12:10:43.900Z,10.40
2019-02-10T12:13:14.435Z,9.80
2019-02-10T12:15:44.997Z,9.60
2019-02-10T12:18:15.422Z,9.60
2019-02-10T12:21:00.588Z,9.30
2019-02-10T12:24:10.134Z,9.30
2019-02-10T12:26:51.411Z,9.20
2019-02-10T13:12:49.513Z,9.10
2019-02-10T13:24:54.855Z,8.80
2019-02-10T13:28:29.446Z,8.90
2019-02-10T13:35:01.284Z,8.80
2019-02-10T13:38:23.038Z,8.90
2019-02-10T13:43:47.065Z,8.90
2019-02-10T13:46:28.292Z,8.90
2019-02-10T13:49:02.454Z,8.80
2019-02-10T13:58:42.441Z,9.00
2019-02-10T14:01:22.099Z,9.00
2019-02-10T14:04:12.867Z,9.00
2019-02-10T14:06:49.707Z,9.00
2019-02-10T14:09:25.864Z,9.00
2019-02-10T14:12:18.260Z,9.00
2019-02-10T14:14:48.641Z,9.00
2019-02-10T14:17:21.600Z,8.90
2019-02-10T14:19:51.951Z,9.00
2019-02-10T14:22:22.822Z,8.80
2019-02-10T14:24:53.299Z,8.80
2019-02-10T14:27:24.255Z,8.80
2019-02-10T14:29:55.677Z,8.70
2019-02-10T14:32:26.016Z,8.60
2019-02-10T14:34:58.929Z,8.50
2019-02-10T14:44:58.328Z,8.20
2019-02-10T14:52:28.099Z,7.80
2019-02-10T14:54:58.528Z,7.70
2019-02-10T14:57:28.879Z,7.70
2019-02-10T15:00:08.568Z,7.60
2019-02-10T15:02:39.412Z,7.70
2019-02-10T15:05:13.052Z,7.80
2019-02-10T15:07:43.472Z,7.80
2019-02-10T15:10:14.800Z,7.90
2019-02-10T15:15:33.433Z,7.90
2019-02-10T15:18:07.927Z,7.90
2019-02-10T15:26:53.968Z,8.10
2019-02-10T15:29:27.733Z,8.20
2019-02-10T15:38:00.034Z,7.80
2019-02-10T15:40:30.495Z,7.60
2019-02-10T15:43:03.393Z,7.40
2019-02-10T15:51:08.966Z,7.10
2019-02-10T16:08:21.037Z,6.90
2019-02-10T16:10:58.300Z,6.90
2019-02-10T16:13:27.521Z,7.00
2019-02-10T16:25:09.344Z,6.90
2019-02-10T16:27:40.896Z,6.90
2019-02-10T16:30:22.957Z,6.70
2019-02-10T16:32:55.005Z,6.50
2019-02-10T16:35:25.513Z,6.40
2019-02-10T16:37:58.158Z,6.50
2019-02-10T16:40:28.925Z,6.50
2019-02-10T16:43:00.418Z,6.60
2019-02-10T16:45:31.129Z,6.60
2019-02-10T16:51:18.054Z,6.30
2019-02-10T16:56:43.131Z,6.10
2019-02-10T16:59:13.904Z,6.20
2019-02-10T17:01:44.276Z,6.20
2019-02-10T17:07:47.420Z,6.00
2019-02-10T17:10:33.620Z,6.00
2019-02-10T17:13:08.143Z,6.10
2019-02-10T17:15:41.167Z,6.30
2019-02-10T17:18:35.185Z,6.40
2019-02-10T17:21:07.223Z,6.40
2019-02-10T17:23:41.054Z,6.50
2019-02-10T17:26:28.610Z,6.50
2019-02-10T17:29:09.917Z,6.70
2019-02-10T17:31:40.915Z,6.70
2019-02-10T17:37:55.776Z,6.70
2019-02-10T18:02:11.311Z,6.90
2019-02-10T18:08:29.974Z,7.00
2019-02-10T18:11:20.169Z,7.00
2019-02-10T18:13:53.735Z,6.90
2019-02-10T18:16:42.919Z,6.90
2019-02-10T18:19:35.010Z,6.30
2019-02-10T18:22:39.741Z,6.30
2019-02-10T18:25:37.977Z,6.20
2019-02-10T18:52:45.819Z,5.90
2019-02-10T19:35:48.108Z,4.80
2019-02-10T19:38:55.435Z,4.80
2019-02-10T19:41:31.791Z,4.80
2019-02-10T19:44:36.611Z,4.80
2019-02-10T19:47:24.823Z,4.80
2019-02-10T19:50:16.890Z,4.80
2019-02-10T19:52:56.088Z,4.80
2019-02-10T19:55:46.982Z,4.90
2019-02-10T19:58:48.608Z,5.00
2019-02-10T20:04:28.424Z,5.30
2019-02-10T20:07:15.147Z,5.40
2019-02-10T20:13:06.851Z,5.50
2019-02-10T20:15:56.108Z,5.60
2019-02-10T20:18:47.983Z,5.60
2019-02-10T20:21:37.340Z,5.50
2019-02-10T20:24:42.076Z,5.40
2019-02-10T20:27:45.039Z,5.40
2019-02-10T20:30:44.176Z,5.40
2019-02-10T20:33:33.472Z,5.40
2019-02-10T20:36:22.024Z,5.50
2019-02-10T20:39:05.827Z,5.50
2019-02-10T20:41:59.184Z,5.60
2019-02-10T20:44:54.412Z,5.60
2019-02-10T20:50:44.167Z,5.50
2019-02-10T20:53:32.145Z,5.50
2019-02-10T20:56:28.239Z,5.40
2019-02-10T20:59:08.704Z,5.50
2019-02-10T21:01:45.248Z,5.50
2019-02-10T21:04:26.632Z,5.50
2019-02-10T21:07:15.135Z,5.50
2019-02-10T21:09:57.727Z,5.50
2019-02-10T21:12:44.709Z,5.50
2019-02-10T21:15:32.915Z,5.50
2019-02-10T21:18:21.203Z,5.50
2019-02-10T21:21:09.132Z,5.50
2019-02-10T21:23:57.639Z,5.50
2019-02-10T21:26:50.000Z,5.50
2019-02-10T21:29:38.382Z,5.50
2019-02-10T21:32:30.616Z,5.50
2019-02-10T21:35:14.860Z,5.50
2019-02-10T21:38:13.499Z,5.50
2019-02-10T21:41:07.744Z,5.50
2019-02-10T21:43:58.188Z,5.40
2019-02-10T21:46:43.939Z,5.30
2019-02-10T21:49:16.180Z,5.30
2019-02-10T21:51:46.540Z,5.20
2019-02-10T21:54:18.344Z,5.20
2019-02-10T21:59:18.295Z,5.20
2019-02-10T22:04:18.728Z,5.10
2019-02-10T22:09:18.675Z,5.10
2019-02-10T22:14:18.723Z,5.20
2019-02-10T22:16:49.071Z,5.20
2019-02-10T22:19:19.423Z,5.20
2019-02-10T22:24:19.403Z,5.20
2019-02-10T22:29:19.451Z,5.20
2019-02-10T22:34:19.471Z,5.20
2019-02-10T22:39:19.489Z,5.30
2019-02-10T22:46:49.727Z,5.30
2019-02-10T22:54:19.516Z,5.30
2019-02-10T22:56:49.863Z,5.30
2019-02-10T22:59:20.239Z,5.40
2019-02-10T23:04:20.179Z,5.40
2019-02-10T23:06:50.528Z,5.50
2019-02-10T23:09:23.786Z,5.50
2019-02-10T23:11:54.168Z,5.40
2019-02-10T23:14:24.515Z,5.40
2019-02-10T23:16:54.891Z,5.40
2019-02-10T23:19:25.227Z,5.40
2019-02-10T23:21:55.579Z,5.40
2019-02-10T23:26:55.543Z,5.40
2019-02-10T23:31:56.579Z,5.60
2019-02-10T23:34:27.227Z,5.60
2019-02-10T23:36:57.856Z,5.60
2019-02-10T23:39:29.267Z,5.60
2019-02-10T23:41:59.607Z,5.60
2019-02-10T23:44:30.483Z,5.60
2019-02-10T23:47:01.799Z,5.60
2019-02-10T23:49:32.155Z,5.60
2019-02-10T23:52:02.512Z,5.60
2019-02-10T23:54:32.940Z,5.70
2019-02-10T23:57:03.295Z,5.60
2019-02-10T23:59:33.631Z,5.70
